Forbing, Louisiana
Current Conditions -  °F | °C
As of 10:56 AM on Thursday 27 Nov 2014 (Local Time) from KSHV Reporting Station
Clear Clear  
Wind Chill: 52°   Ceiling: Unl
Heat Index: 52°   Visibility: 10mi
Dew Point: 28°   Wind: 13mph
Humidity: 40%   Direction: 360°N
Pressure: 30.52"   Gusts: NA
Location:  32.3873°N, 93.7356°W
Report Text: KSHV 271656Z 36011KT 10SM CLR 11/M02 A3052 RMK AO2 SLP335 T01111022
Loading
Personal Weather Stations






























Interactive Weather Map New forecast layout! Learn more

10-Day Weather Forecast

Advertisements
Track Severe Weather on mobile